sensor_id;sensor_type;location;lat;lon;timestamp;temperature;humidity
13742;DHT22;8461;52.356;10.704;2022-09-09T00:09:22;13.50;99.90
13742;DHT22;8461;52.356;10.704;2022-09-09T00:12:14;13.40;99.90
13742;DHT22;8461;52.356;10.704;2022-09-09T00:14:52;13.40;99.90
13742;DHT22;8461;52.356;10.704;2022-09-09T00:17:43;13.40;99.90
13742;DHT22;8461;52.356;10.704;2022-09-09T00:20:16;13.40;99.90
13742;DHT22;8461;52.356;10.704;2022-09-09T00:22:50;13.40;99.90
13742;DHT22;8461;52.356;10.704;2022-09-09T00:25:43;13.30;99.90
13742;DHT22;8461;52.356;10.704;2022-09-09T00:28:19;13.40;99.90
13742;DHT22;8461;52.356;10.704;2022-09-09T00:30:46;13.30;99.90
13742;DHT22;8461;52.356;10.704;2022-09-09T00:33:16;13.30;99.90
13742;DHT22;8461;52.356;10.704;2022-09-09T00:35:51;13.30;99.90
13742;DHT22;8461;52.356;10.704;2022-09-09T00:38:43;13.30;99.90
13742;DHT22;8461;52.356;10.704;2022-09-09T00:41:39;13.40;99.90
13742;DHT22;8461;52.356;10.704;2022-09-09T00:44:27;13.40;99.90
13742;DHT22;8461;52.356;10.704;2022-09-09T00:52:37;13.50;99.90
13742;DHT22;8461;52.356;10.704;2022-09-09T00:55:13;13.50;99.90
13742;DHT22;8461;52.356;10.704;2022-09-09T00:57:41;13.40;99.90
13742;DHT22;8461;52.356;10.704;2022-09-09T01:00:20;13.40;99.90
13742;DHT22;8461;52.356;10.704;2022-09-09T01:06:00;13.30;99.90
13742;DHT22;8461;52.356;10.704;2022-09-09T01:09:00;13.30;99.90
13742;DHT22;8461;52.356;10.704;2022-09-09T01:17:07;13.30;99.90
13742;DHT22;8461;52.356;10.704;2022-09-09T01:22:12;13.30;99.90
13742;DHT22;8461;52.356;10.704;2022-09-09T01:27:27;13.30;99.90
13742;DHT22;8461;52.356;10.704;2022-09-09T01:29:52;13.30;99.90
13742;DHT22;8461;52.356;10.704;2022-09-09T01:32:45;13.30;99.90
13742;DHT22;8461;52.356;10.704;2022-09-09T01:38:00;13.20;99.90
13742;DHT22;8461;52.356;10.704;2022-09-09T01:40:26;13.10;99.90
13742;DHT22;8461;52.356;10.704;2022-09-09T01:42:52;13.10;99.90
13742;DHT22;8461;52.356;10.704;2022-09-09T01:45:18;13.10;99.90
13742;DHT22;8461;52.356;10.704;2022-09-09T01:47:44;13.10;99.90
13742;DHT22;8461;52.356;10.704;2022-09-09T01:50:13;13.10;99.90
13742;DHT22;8461;52.356;10.704;2022-09-09T01:52:40;13.10;99.90
13742;DHT22;8461;52.356;10.704;2022-09-09T01:55:06;13.00;99.90
13742;DHT22;8461;52.356;10.704;2022-09-09T02:00:25;13.10;99.90
13742;DHT22;8461;52.356;10.704;2022-09-09T02:05:31;13.00;99.90
13742;DHT22;8461;52.356;10.704;2022-09-09T02:08:09;13.10;99.90
13742;DHT22;8461;52.356;10.704;2022-09-09T02:10:42;13.10;99.90
13742;DHT22;8461;52.356;10.704;2022-09-09T02:13:12;13.10;99.90
13742;DHT22;8461;52.356;10.704;2022-09-09T02:18:15;13.00;99.90
13742;DHT22;8461;52.356;10.704;2022-09-09T02:20:45;13.00;99.90
13742;DHT22;8461;52.356;10.704;2022-09-09T02:23:12;13.00;99.90
13742;DHT22;8461;52.356;10.704;2022-09-09T02:25:40;13.00;99.90
13742;DHT22;8461;52.356;10.704;2022-09-09T02:28:08;12.90;99.90
13742;DHT22;8461;52.356;10.704;2022-09-09T02:30:37;12.90;99.90
13742;DHT22;8461;52.356;10.704;2022-09-09T02:33:04;12.90;99.90
13742;DHT22;8461;52.356;10.704;2022-09-09T02:35:32;12.90;99.90
13742;DHT22;8461;52.356;10.704;2022-09-09T02:38:02;12.90;99.90
13742;DHT22;8461;52.356;10.704;2022-09-09T02:40:29;12.90;99.90
13742;DHT22;8461;52.356;10.704;2022-09-09T02:42:55;12.90;99.90
13742;DHT22;8461;52.356;10.704;2022-09-09T02:45:24;13.00;99.90
13742;DHT22;8461;52.356;10.704;2022-09-09T02:50:33;13.00;99.90
13742;DHT22;8461;52.356;10.704;2022-09-09T02:53:20;13.00;99.90
13742;DHT22;8461;52.356;10.704;2022-09-09T02:55:53;12.90;99.90
13742;DHT22;8461;52.356;10.704;2022-09-09T02:58:20;12.90;99.90
13742;DHT22;8461;52.356;10.704;2022-09-09T03:00:47;12.90;99.90
13742;DHT22;8461;52.356;10.704;2022-09-09T03:03:13;12.90;99.90
13742;DHT22;8461;52.356;10.704;2022-09-09T03:05:42;12.90;99.90
13742;DHT22;8461;52.356;10.704;2022-09-09T03:08:08;12.90;99.90
13742;DHT22;8461;52.356;10.704;2022-09-09T03:10:34;12.90;99.90
13742;DHT22;8461;52.356;10.704;2022-09-09T03:13:00;12.90;99.90
13742;DHT22;8461;52.356;10.704;2022-09-09T03:15:26;12.80;99.90
13742;DHT22;8461;52.356;10.704;2022-09-09T03:17:56;12.70;99.90
13742;DHT22;8461;52.356;10.704;2022-09-09T03:20:27;12.70;99.90
13742;DHT22;8461;52.356;10.704;2022-09-09T03:22:54;12.70;99.90
13742;DHT22;8461;52.356;10.704;2022-09-09T03:25:20;12.70;99.90
13742;DHT22;8461;52.356;10.704;2022-09-09T03:27:49;12.70;99.90
13742;DHT22;8461;52.356;10.704;2022-09-09T03:30:15;12.70;99.90
13742;DHT22;8461;52.356;10.704;2022-09-09T03:32:41;12.80;99.90
13742;DHT22;8461;52.356;10.704;2022-09-09T03:35:07;12.80;99.90
13742;DHT22;8461;52.356;10.704;2022-09-09T03:37:32;12.80;99.90
13742;DHT22;8461;52.356;10.704;2022-09-09T03:39:58;12.80;99.90
13742;DHT22;8461;52.356;10.704;2022-09-09T03:42:25;12.80;99.90
13742;DHT22;8461;52.356;10.704;2022-09-09T03:44:51;12.70;99.90
13742;DHT22;8461;52.356;10.704;2022-09-09T03:47:17;12.80;99.90
13742;DHT22;8461;52.356;10.704;2022-09-09T03:49:43;12.80;99.90
13742;DHT22;8461;52.356;10.704;2022-09-09T03:52:09;12.70;99.90
13742;DHT22;8461;52.356;10.704;2022-09-09T03:54:35;12.70;99.90
13742;DHT22;8461;52.356;10.704;2022-09-09T03:57:01;12.80;99.90
13742;DHT22;8461;52.356;10.704;2022-09-09T03:59:27;12.80;99.90
13742;DHT22;8461;52.356;10.704;2022-09-09T04:01:53;12.80;99.90
13742;DHT22;8461;52.356;10.704;2022-09-09T04:04:20;12.70;99.90
13742;DHT22;8461;52.356;10.704;2022-09-09T04:06:46;12.60;99.90
13742;DHT22;8461;52.356;10.704;2022-09-09T04:09:13;12.60;99.90
13742;DHT22;8461;52.356;10.704;2022-09-09T04:11:39;12.60;99.90
13742;DHT22;8461;52.356;10.704;2022-09-09T04:14:04;12.60;99.90
13742;DHT22;8461;52.356;10.704;2022-09-09T04:16:32;12.60;99.90
13742;DHT22;8461;52.356;10.704;2022-09-09T04:18:58;12.60;99.90
13742;DHT22;8461;52.356;10.704;2022-09-09T04:21:25;12.70;99.90
13742;DHT22;8461;52.356;10.704;2022-09-09T04:23:51;12.70;99.90
13742;DHT22;8461;52.356;10.704;2022-09-09T04:26:17;12.70;99.90
13742;DHT22;8461;52.356;10.704;2022-09-09T04:28:43;12.80;99.90
13742;DHT22;8461;52.356;10.704;2022-09-09T04:31:13;12.80;99.90
13742;DHT22;8461;52.356;10.704;2022-09-09T04:33:40;12.80;99.90
13742;DHT22;8461;52.356;10.704;2022-09-09T04:36:05;12.80;99.90
13742;DHT22;8461;52.356;10.704;2022-09-09T04:38:31;12.90;99.90
13742;DHT22;8461;52.356;10.704;2022-09-09T04:40:56;12.90;99.90
13742;DHT22;8461;52.356;10.704;2022-09-09T04:43:22;12.90;99.90
13742;DHT22;8461;52.356;10.704;2022-09-09T04:45:49;13.00;99.90
13742;DHT22;8461;52.356;10.704;2022-09-09T04:48:14;13.00;99.90
13742;DHT22;8461;52.356;10.704;2022-09-09T04:50:40;13.00;99.90
13742;DHT22;8461;52.356;10.704;2022-09-09T04:53:06;13.00;99.90
13742;DHT22;8461;52.356;10.704;2022-09-09T04:55:33;12.90;99.90
13742;DHT22;8461;52.356;10.704;2022-09-09T04:58:04;12.90;99.90
13742;DHT22;8461;52.356;10.704;2022-09-09T05:00:30;12.90;99.90
13742;DHT22;8461;52.356;10.704;2022-09-09T05:02:56;12.90;99.90
13742;DHT22;8461;52.356;10.704;2022-09-09T05:05:21;13.00;99.90
13742;DHT22;8461;52.356;10.704;2022-09-09T05:07:47;12.90;99.90
13742;DHT22;8461;52.356;10.704;2022-09-09T05:10:13;13.00;99.90
13742;DHT22;8461;52.356;10.704;2022-09-09T05:12:40;13.00;99.90
13742;DHT22;8461;52.356;10.704;2022-09-09T05:15:06;13.00;99.90
13742;DHT22;8461;52.356;10.704;2022-09-09T05:17:32;13.10;99.90
13742;DHT22;8461;52.356;10.704;2022-09-09T05:19:59;13.00;99.90
13742;DHT22;8461;52.356;10.704;2022-09-09T05:22:24;13.00;99.90
13742;DHT22;8461;52.356;10.704;2022-09-09T05:24:50;13.10;99.90
13742;DHT22;8461;52.356;10.704;2022-09-09T05:27:17;13.10;99.90
13742;DHT22;8461;52.356;10.704;2022-09-09T05:29:45;13.20;99.90
13742;DHT22;8461;52.356;10.704;2022-09-09T05:32:10;13.30;99.90
13742;DHT22;8461;52.356;10.704;2022-09-09T05:34:36;13.40;99.90
13742;DHT22;8461;52.356;10.704;2022-09-09T05:37:03;13.50;99.90
13742;DHT22;8461;52.356;10.704;2022-09-09T05:39:29;13.60;99.90
13742;DHT22;8461;52.356;10.704;2022-09-09T05:41:55;13.70;99.90
13742;DHT22;8461;52.356;10.704;2022-09-09T05:44:20;13.80;99.90
13742;DHT22;8461;52.356;10.704;2022-09-09T05:46:48;13.90;99.90
13742;DHT22;8461;52.356;10.704;2022-09-09T05:49:14;14.00;99.90
13742;DHT22;8461;52.356;10.704;2022-09-09T05:51:41;14.10;99.90
13742;DHT22;8461;52.356;10.704;2022-09-09T05:54:08;14.20;99.90
13742;DHT22;8461;52.356;10.704;2022-09-09T05:56:34;14.20;99.90
13742;DHT22;8461;52.356;10.704;2022-09-09T05:58:59;14.30;99.90
13742;DHT22;8461;52.356;10.704;2022-09-09T06:01:28;14.30;99.90
13742;DHT22;8461;52.356;10.704;2022-09-09T06:03:54;14.40;99.90
13742;DHT22;8461;52.356;10.704;2022-09-09T06:06:22;14.40;99.90
13742;DHT22;8461;52.356;10.704;2022-09-09T06:08:50;14.40;99.90
13742;DHT22;8461;52.356;10.704;2022-09-09T06:11:19;14.50;99.90
13742;DHT22;8461;52.356;10.704;2022-09-09T06:13:45;14.60;99.90
13742;DHT22;8461;52.356;10.704;2022-09-09T06:16:12;14.60;99.90
13742;DHT22;8461;52.356;10.704;2022-09-09T06:18:39;14.70;99.90
13742;DHT22;8461;52.356;10.704;2022-09-09T06:21:07;14.90;99.90
13742;DHT22;8461;52.356;10.704;2022-09-09T06:23:33;15.00;99.90
13742;DHT22;8461;52.356;10.704;2022-09-09T06:26:04;15.20;99.90
13742;DHT22;8461;52.356;10.704;2022-09-09T06:28:33;15.40;99.90
13742;DHT22;8461;52.356;10.704;2022-09-09T06:31:06;15.50;99.90
13742;DHT22;8461;52.356;10.704;2022-09-09T06:33:37;15.50;99.90
13742;DHT22;8461;52.356;10.704;2022-09-09T06:36:05;15.50;99.90
13742;DHT22;8461;52.356;10.704;2022-09-09T06:38:31;15.50;99.90
13742;DHT22;8461;52.356;10.704;2022-09-09T06:40:58;15.50;99.90
13742;DHT22;8461;52.356;10.704;2022-09-09T06:43:25;15.40;99.90
13742;DHT22;8461;52.356;10.704;2022-09-09T06:45:58;15.40;99.90
13742;DHT22;8461;52.356;10.704;2022-09-09T06:48:24;15.50;99.90
13742;DHT22;8461;52.356;10.704;2022-09-09T06:50:59;15.50;99.90
13742;DHT22;8461;52.356;10.704;2022-09-09T06:53:25;15.60;99.90
13742;DHT22;8461;52.356;10.704;2022-09-09T06:55:51;15.60;99.90
13742;DHT22;8461;52.356;10.704;2022-09-09T06:58:17;15.70;99.90
13742;DHT22;8461;52.356;10.704;2022-09-09T07:00:42;15.80;99.90
13742;DHT22;8461;52.356;10.704;2022-09-09T07:03:10;15.80;99.90
13742;DHT22;8461;52.356;10.704;2022-09-09T07:05:35;15.90;99.90
13742;DHT22;8461;52.356;10.704;2022-09-09T07:08:01;16.00;99.90
13742;DHT22;8461;52.356;10.704;2022-09-09T07:10:27;16.00;99.90
13742;DHT22;8461;52.356;10.704;2022-09-09T07:12:53;16.00;99.90
13742;DHT22;8461;52.356;10.704;2022-09-09T07:15:20;16.10;99.90
13742;DHT22;8461;52.356;10.704;2022-09-09T07:17:48;16.10;99.90
13742;DHT22;8461;52.356;10.704;2022-09-09T07:20:14;16.20;99.90
13742;DHT22;8461;52.356;10.704;2022-09-09T07:22:40;16.30;99.90
13742;DHT22;8461;52.356;10.704;2022-09-09T07:25:07;16.40;99.90
13742;DHT22;8461;52.356;10.704;2022-09-09T07:27:33;16.40;99.90
13742;DHT22;8461;52.356;10.704;2022-09-09T07:29:58;16.40;99.90
13742;DHT22;8461;52.356;10.704;2022-09-09T07:32:24;16.50;99.90
13742;DHT22;8461;52.356;10.704;2022-09-09T07:34:51;16.50;99.90
13742;DHT22;8461;52.356;10.704;2022-09-09T07:37:17;16.50;99.90
13742;DHT22;8461;52.356;10.704;2022-09-09T07:39:43;16.60;99.90
13742;DHT22;8461;52.356;10.704;2022-09-09T07:42:08;16.60;99.90
13742;DHT22;8461;52.356;10.704;2022-09-09T07:44:36;16.60;99.90
13742;DHT22;8461;52.356;10.704;2022-09-09T07:47:05;16.70;99.90
13742;DHT22;8461;52.356;10.704;2022-09-09T07:49:30;16.80;99.90
13742;DHT22;8461;52.356;10.704;2022-09-09T07:51:57;16.90;99.90
13742;DHT22;8461;52.356;10.704;2022-09-09T07:54:23;17.10;99.90
13742;DHT22;8461;52.356;10.704;2022-09-09T07:56:49;17.20;99.90
13742;DHT22;8461;52.356;10.704;2022-09-09T07:59:15;17.30;99.90
13742;DHT22;8461;52.356;10.704;2022-09-09T08:01:46;17.30;99.90
13742;DHT22;8461;52.356;10.704;2022-09-09T08:04:17;17.30;99.90
13742;DHT22;8461;52.356;10.704;2022-09-09T08:06:46;17.30;99.90
13742;DHT22;8461;52.356;10.704;2022-09-09T08:09:12;17.30;99.90
13742;DHT22;8461;52.356;10.704;2022-09-09T08:11:38;17.30;99.90
13742;DHT22;8461;52.356;10.704;2022-09-09T08:14:05;17.30;99.90
13742;DHT22;8461;52.356;10.704;2022-09-09T08:16:34;17.30;99.90
13742;DHT22;8461;52.356;10.704;2022-09-09T08:19:02;17.30;99.90
13742;DHT22;8461;52.356;10.704;2022-09-09T08:21:30;17.20;99.90
13742;DHT22;8461;52.356;10.704;2022-09-09T08:23:58;17.40;99.90
13742;DHT22;8461;52.356;10.704;2022-09-09T08:26:26;17.50;99.90
13742;DHT22;8461;52.356;10.704;2022-09-09T08:28:55;17.60;99.90
13742;DHT22;8461;52.356;10.704;2022-09-09T08:33:58;17.80;99.90
13742;DHT22;8461;52.356;10.704;2022-09-09T08:36:32;17.90;99.90
13742;DHT22;8461;52.356;10.704;2022-09-09T08:38:59;17.90;99.90
13742;DHT22;8461;52.356;10.704;2022-09-09T08:44:22;18.10;99.90
13742;DHT22;8461;52.356;10.704;2022-09-09T08:52:41;18.50;99.90
13742;DHT22;8461;52.356;10.704;2022-09-09T08:58:08;19.00;99.90
13742;DHT22;8461;52.356;10.704;2022-09-09T09:01:16;19.10;99.90
13742;DHT22;8461;52.356;10.704;2022-09-09T09:09:09;19.10;99.90
13742;DHT22;8461;52.356;10.704;2022-09-09T09:11:38;19.10;99.90
13742;DHT22;8461;52.356;10.704;2022-09-09T09:14:23;19.20;99.90
13742;DHT22;8461;52.356;10.704;2022-09-09T09:19:21;19.00;99.90
13742;DHT22;8461;52.356;10.704;2022-09-09T09:21:51;18.80;99.90
13742;DHT22;8461;52.356;10.704;2022-09-09T09:24:49;18.80;99.90
13742;DHT22;8461;52.356;10.704;2022-09-09T09:29:58;18.60;99.90
13742;DHT22;8461;52.356;10.704;2022-09-09T09:32:28;18.60;99.90
13742;DHT22;8461;52.356;10.704;2022-09-09T09:34:56;18.70;99.90
13742;DHT22;8461;52.356;10.704;2022-09-09T09:37:29;18.70;99.90
13742;DHT22;8461;52.356;10.704;2022-09-09T09:39:55;18.70;99.90
13742;DHT22;8461;52.356;10.704;2022-09-09T09:42:21;18.80;99.90
13742;DHT22;8461;52.356;10.704;2022-09-09T09:44:47;18.70;99.90
13742;DHT22;8461;52.356;10.704;2022-09-09T09:47:15;18.70;99.90
13742;DHT22;8461;52.356;10.704;2022-09-09T09:49:57;18.70;99.90
13742;DHT22;8461;52.356;10.704;2022-09-09T09:52:26;18.60;99.90
13742;DHT22;8461;52.356;10.704;2022-09-09T09:54:54;18.50;99.90
13742;DHT22;8461;52.356;10.704;2022-09-09T09:57:29;18.50;99.90
13742;DHT22;8461;52.356;10.704;2022-09-09T10:00:16;18.70;99.90
13742;DHT22;8461;52.356;10.704;2022-09-09T10:02:46;19.10;99.90
13742;DHT22;8461;52.356;10.704;2022-09-09T10:07:38;19.70;99.90
13742;DHT22;8461;52.356;10.704;2022-09-09T10:10:04;19.90;99.90
13742;DHT22;8461;52.356;10.704;2022-09-09T10:15:26;20.40;99.90
13742;DHT22;8461;52.356;10.704;2022-09-09T10:21:01;20.70;99.90
13742;DHT22;8461;52.356;10.704;2022-09-09T10:23:31;20.60;99.90
13742;DHT22;8461;52.356;10.704;2022-09-09T10:40:06;20.40;99.90
13742;DHT22;8461;52.356;10.704;2022-09-09T10:42:34;20.30;99.90
13742;DHT22;8461;52.356;10.704;2022-09-09T10:45:18;20.30;99.90
13742;DHT22;8461;52.356;10.704;2022-09-09T10:50:49;20.80;99.90
13742;DHT22;8461;52.356;10.704;2022-09-09T10:53:38;20.80;99.90
13742;DHT22;8461;52.356;10.704;2022-09-09T10:56:11;21.10;99.90
13742;DHT22;8461;52.356;10.704;2022-09-09T10:58:47;21.40;99.90
13742;DHT22;8461;52.356;10.704;2022-09-09T11:03:58;21.70;99.90
13742;DHT22;8461;52.356;10.704;2022-09-09T11:06:30;21.70;99.90
13742;DHT22;8461;52.356;10.704;2022-09-09T11:08:59;21.50;99.90
13742;DHT22;8461;52.356;10.704;2022-09-09T11:11:42;21.30;99.90
13742;DHT22;8461;52.356;10.704;2022-09-09T11:14:29;21.10;99.90
13742;DHT22;8461;52.356;10.704;2022-09-09T11:17:02;20.90;99.90
13742;DHT22;8461;52.356;10.704;2022-09-09T11:19:40;20.70;99.90
13742;DHT22;8461;52.356;10.704;2022-09-09T11:22:08;20.60;99.90
13742;DHT22;8461;52.356;10.704;2022-09-09T11:24:41;20.50;99.90
13742;DHT22;8461;52.356;10.704;2022-09-09T11:27:21;20.40;99.90
13742;DHT22;8461;52.356;10.704;2022-09-09T11:38:47;20.20;99.90
13742;DHT22;8461;52.356;10.704;2022-09-09T11:41:18;20.20;99.90
13742;DHT22;8461;52.356;10.704;2022-09-09T11:43:51;20.20;99.90
13742;DHT22;8461;52.356;10.704;2022-09-09T11:46:22;20.20;99.90
13742;DHT22;8461;52.356;10.704;2022-09-09T11:49:05;20.40;99.90
13742;DHT22;8461;52.356;10.704;2022-09-09T11:51:33;20.70;99.90
13742;DHT22;8461;52.356;10.704;2022-09-09T11:56:48;21.00;99.90
13742;DHT22;8461;52.356;10.704;2022-09-09T11:59:25;20.90;99.90
13742;DHT22;8461;52.356;10.704;2022-09-09T12:01:58;20.90;99.90
13742;DHT22;8461;52.356;10.704;2022-09-09T12:09:41;20.60;99.90
13742;DHT22;8461;52.356;10.704;2022-09-09T12:15:02;20.20;99.90
13742;DHT22;8461;52.356;10.704;2022-09-09T12:17:30;20.20;99.90
13742;DHT22;8461;52.356;10.704;2022-09-09T12:20:38;20.30;99.90
13742;DHT22;8461;52.356;10.704;2022-09-09T12:26:13;20.50;99.90
13742;DHT22;8461;52.356;10.704;2022-09-09T12:37:51;20.90;99.90
13742;DHT22;8461;52.356;10.704;2022-09-09T12:39:55;21.00;99.90
13742;DHT22;8461;52.356;10.704;2022-09-09T12:42:21;21.20;99.90
13742;DHT22;8461;52.356;10.704;2022-09-09T12:44:58;21.40;99.90
13742;DHT22;8461;52.356;10.704;2022-09-09T12:47:49;21.30;99.90
13742;DHT22;8461;52.356;10.704;2022-09-09T12:50:22;21.40;99.90
13742;DHT22;8461;52.356;10.704;2022-09-09T12:52:49;21.40;99.90
13742;DHT22;8461;52.356;10.704;2022-09-09T12:55:18;21.30;99.90
13742;DHT22;8461;52.356;10.704;2022-09-09T12:57:44;21.40;99.90
13742;DHT22;8461;52.356;10.704;2022-09-09T13:00:22;21.60;99.90
13742;DHT22;8461;52.356;10.704;2022-09-09T13:02:56;21.80;99.90
13742;DHT22;8461;52.356;10.704;2022-09-09T13:05:36;21.80;99.90
13742;DHT22;8461;52.356;10.704;2022-09-09T13:08:08;21.70;99.90
13742;DHT22;8461;52.356;10.704;2022-09-09T13:10:54;21.60;99.90
13742;DHT22;8461;52.356;10.704;2022-09-09T13:13:26;21.60;99.90
13742;DHT22;8461;52.356;10.704;2022-09-09T13:15:57;21.50;99.90
13742;DHT22;8461;52.356;10.704;2022-09-09T13:18:27;21.50;99.90
13742;DHT22;8461;52.356;10.704;2022-09-09T13:20:54;21.50;99.90
13742;DHT22;8461;52.356;10.704;2022-09-09T13:23:21;21.40;99.90
13742;DHT22;8461;52.356;10.704;2022-09-09T13:25:55;21.10;99.90
13742;DHT22;8461;52.356;10.704;2022-09-09T13:28:23;20.80;99.90
13742;DHT22;8461;52.356;10.704;2022-09-09T13:31:00;20.60;99.90
13742;DHT22;8461;52.356;10.704;2022-09-09T13:33:30;20.50;99.90
13742;DHT22;8461;52.356;10.704;2022-09-09T13:36:03;20.40;99.90
13742;DHT22;8461;52.356;10.704;2022-09-09T13:38:32;20.30;99.90
13742;DHT22;8461;52.356;10.704;2022-09-09T13:43:42;20.30;99.90
13742;DHT22;8461;52.356;10.704;2022-09-09T13:46:30;20.40;99.90
13742;DHT22;8461;52.356;10.704;2022-09-09T13:48:57;20.50;99.90
13742;DHT22;8461;52.356;10.704;2022-09-09T13:51:41;20.60;99.90
13742;DHT22;8461;52.356;10.704;2022-09-09T13:54:11;20.90;99.90
13742;DHT22;8461;52.356;10.704;2022-09-09T13:56:38;21.10;99.90
13742;DHT22;8461;52.356;10.704;2022-09-09T13:59:06;21.20;99.90
13742;DHT22;8461;52.356;10.704;2022-09-09T14:01:34;21.10;99.90
13742;DHT22;8461;52.356;10.704;2022-09-09T14:04:00;21.20;99.90
13742;DHT22;8461;52.356;10.704;2022-09-09T14:06:26;21.30;99.90
13742;DHT22;8461;52.356;10.704;2022-09-09T14:08:53;21.30;99.90
13742;DHT22;8461;52.356;10.704;2022-09-09T14:11:20;21.30;99.90
13742;DHT22;8461;52.356;10.704;2022-09-09T14:13:47;21.20;99.90
13742;DHT22;8461;52.356;10.704;2022-09-09T14:16:12;21.20;99.90
13742;DHT22;8461;52.356;10.704;2022-09-09T14:18:39;21.20;99.90
13742;DHT22;8461;52.356;10.704;2022-09-09T14:21:04;21.20;99.90
13742;DHT22;8461;52.356;10.704;2022-09-09T14:23:30;21.20;99.90
13742;DHT22;8461;52.356;10.704;2022-09-09T14:25:57;21.20;99.90
13742;DHT22;8461;52.356;10.704;2022-09-09T14:28:23;21.20;99.90
13742;DHT22;8461;52.356;10.704;2022-09-09T14:30:48;21.00;99.90
13742;DHT22;8461;52.356;10.704;2022-09-09T14:33:15;21.00;99.90
13742;DHT22;8461;52.356;10.704;2022-09-09T14:35:41;21.00;99.90
13742;DHT22;8461;52.356;10.704;2022-09-09T14:38:08;21.00;99.90
13742;DHT22;8461;52.356;10.704;2022-09-09T14:40:35;21.00;99.90
13742;DHT22;8461;52.356;10.704;2022-09-09T14:43:01;21.00;99.90
13742;DHT22;8461;52.356;10.704;2022-09-09T14:45:27;21.00;99.90
13742;DHT22;8461;52.356;10.704;2022-09-09T14:47:53;20.90;99.90
13742;DHT22;8461;52.356;10.704;2022-09-09T14:50:20;20.90;99.90
13742;DHT22;8461;52.356;10.704;2022-09-09T14:52:46;21.00;99.90
13742;DHT22;8461;52.356;10.704;2022-09-09T14:55:12;21.10;99.90
13742;DHT22;8461;52.356;10.704;2022-09-09T14:57:38;21.10;99.90
13742;DHT22;8461;52.356;10.704;2022-09-09T15:00:06;21.00;99.90
13742;DHT22;8461;52.356;10.704;2022-09-09T15:02:33;21.10;99.90
13742;DHT22;8461;52.356;10.704;2022-09-09T15:04:58;21.00;99.90
13742;DHT22;8461;52.356;10.704;2022-09-09T15:07:24;20.90;99.90
13742;DHT22;8461;52.356;10.704;2022-09-09T15:09:50;20.70;99.90
13742;DHT22;8461;52.356;10.704;2022-09-09T15:12:18;20.60;99.90
13742;DHT22;8461;52.356;10.704;2022-09-09T15:14:44;20.50;99.90
13742;DHT22;8461;52.356;10.704;2022-09-09T15:17:10;20.40;99.90
13742;DHT22;8461;52.356;10.704;2022-09-09T15:19:36;20.40;99.90
13742;DHT22;8461;52.356;10.704;2022-09-09T15:22:03;20.30;99.90
13742;DHT22;8461;52.356;10.704;2022-09-09T15:24:31;20.30;99.90
13742;DHT22;8461;52.356;10.704;2022-09-09T15:26:56;20.20;99.90
13742;DHT22;8461;52.356;10.704;2022-09-09T15:29:23;20.20;99.90
13742;DHT22;8461;52.356;10.704;2022-09-09T15:31:48;20.20;99.90
13742;DHT22;8461;52.356;10.704;2022-09-09T15:34:17;20.20;99.90
13742;DHT22;8461;52.356;10.704;2022-09-09T15:36:44;20.10;99.90
13742;DHT22;8461;52.356;10.704;2022-09-09T15:39:14;20.10;99.90
13742;DHT22;8461;52.356;10.704;2022-09-09T15:41:44;20.10;99.90
13742;DHT22;8461;52.356;10.704;2022-09-09T15:44:10;20.10;99.90
13742;DHT22;8461;52.356;10.704;2022-09-09T15:46:46;20.00;99.90
13742;DHT22;8461;52.356;10.704;2022-09-09T15:49:16;20.00;99.90
13742;DHT22;8461;52.356;10.704;2022-09-09T15:51:46;20.00;99.90
13742;DHT22;8461;52.356;10.704;2022-09-09T15:54:17;20.10;99.90
13742;DHT22;8461;52.356;10.704;2022-09-09T15:56:44;20.10;99.90
13742;DHT22;8461;52.356;10.704;2022-09-09T15:59:10;20.10;99.90
13742;DHT22;8461;52.356;10.704;2022-09-09T16:01:36;20.20;99.90
13742;DHT22;8461;52.356;10.704;2022-09-09T16:04:04;20.20;99.90
13742;DHT22;8461;52.356;10.704;2022-09-09T16:06:30;20.30;99.90
13742;DHT22;8461;52.356;10.704;2022-09-09T16:08:58;20.30;99.90
13742;DHT22;8461;52.356;10.704;2022-09-09T16:11:25;20.30;99.90
13742;DHT22;8461;52.356;10.704;2022-09-09T16:13:52;20.30;99.90
13742;DHT22;8461;52.356;10.704;2022-09-09T16:16:21;20.30;99.90
13742;DHT22;8461;52.356;10.704;2022-09-09T16:18:51;20.30;99.90
13742;DHT22;8461;52.356;10.704;2022-09-09T16:21:24;20.20;99.90
13742;DHT22;8461;52.356;10.704;2022-09-09T16:23:51;20.20;99.90
13742;DHT22;8461;52.356;10.704;2022-09-09T16:26:19;20.20;99.90
13742;DHT22;8461;52.356;10.704;2022-09-09T16:28:44;20.20;99.90
13742;DHT22;8461;52.356;10.704;2022-09-09T16:31:14;20.20;99.90
13742;DHT22;8461;52.356;10.704;2022-09-09T16:33:40;20.20;99.90
13742;DHT22;8461;52.356;10.704;2022-09-09T16:36:08;20.20;99.90
13742;DHT22;8461;52.356;10.704;2022-09-09T16:38:35;20.20;99.90
13742;DHT22;8461;52.356;10.704;2022-09-09T16:41:02;20.30;99.90
13742;DHT22;8461;52.356;10.704;2022-09-09T16:43:28;20.30;99.90
13742;DHT22;8461;52.356;10.704;2022-09-09T16:45:53;20.30;99.90
13742;DHT22;8461;52.356;10.704;2022-09-09T16:48:19;20.20;99.90
13742;DHT22;8461;52.356;10.704;2022-09-09T16:50:45;20.20;99.90
13742;DHT22;8461;52.356;10.704;2022-09-09T16:53:11;20.10;99.90
13742;DHT22;8461;52.356;10.704;2022-09-09T16:55:40;20.10;99.90
13742;DHT22;8461;52.356;10.704;2022-09-09T16:58:08;20.00;99.90
13742;DHT22;8461;52.356;10.704;2022-09-09T17:00:35;19.90;99.90
13742;DHT22;8461;52.356;10.704;2022-09-09T17:03:00;19.90;99.90
13742;DHT22;8461;52.356;10.704;2022-09-09T17:05:26;19.80;99.90
13742;DHT22;8461;52.356;10.704;2022-09-09T17:07:51;19.70;99.90
13742;DHT22;8461;52.356;10.704;2022-09-09T17:10:18;19.70;99.90
13742;DHT22;8461;52.356;10.704;2022-09-09T17:12:44;19.50;99.90
13742;DHT22;8461;52.356;10.704;2022-09-09T17:15:11;19.40;99.90
13742;DHT22;8461;52.356;10.704;2022-09-09T17:17:36;19.30;99.90
13742;DHT22;8461;52.356;10.704;2022-09-09T17:20:02;19.30;99.90
13742;DHT22;8461;52.356;10.704;2022-09-09T17:22:29;19.20;99.90
13742;DHT22;8461;52.356;10.704;2022-09-09T17:24:54;19.10;99.90
13742;DHT22;8461;52.356;10.704;2022-09-09T17:27:20;19.10;99.90
13742;DHT22;8461;52.356;10.704;2022-09-09T17:29:45;19.00;99.90
13742;DHT22;8461;52.356;10.704;2022-09-09T17:32:11;18.90;99.90
13742;DHT22;8461;52.356;10.704;2022-09-09T17:34:37;18.90;99.90
13742;DHT22;8461;52.356;10.704;2022-09-09T17:37:03;18.80;99.90
13742;DHT22;8461;52.356;10.704;2022-09-09T17:39:30;18.70;99.90
13742;DHT22;8461;52.356;10.704;2022-09-09T17:41:55;18.70;99.90
13742;DHT22;8461;52.356;10.704;2022-09-09T17:44:21;18.60;99.90
13742;DHT22;8461;52.356;10.704;2022-09-09T17:46:46;18.60;99.90
13742;DHT22;8461;52.356;10.704;2022-09-09T17:49:14;18.50;99.90
13742;DHT22;8461;52.356;10.704;2022-09-09T17:51:41;18.40;99.90